createdAt,value
2022-07-28T00:00:16.457Z,63.47
2022-07-28T00:02:44.057Z,97.53
2022-07-28T00:05:12.341Z,62.47
2022-07-28T00:07:39.857Z,95.07
2022-07-28T00:10:08.149Z,118.75
2022-07-28T00:12:37.085Z,112.88
2022-07-28T00:15:05.392Z,99.40
2022-07-28T00:17:32.888Z,96.38
2022-07-28T00:20:00.475Z,103.50
2022-07-28T00:22:27.967Z,103.45
2022-07-28T00:24:55.449Z,103.05
2022-07-28T00:27:23.042Z,109.38
2022-07-28T00:29:52.066Z,119.50
2022-07-28T00:32:20.396Z,103.43
2022-07-28T00:34:48.223Z,113.07
2022-07-28T00:37:15.767Z,121.88
2022-07-28T00:39:43.403Z,120.03
2022-07-28T00:42:12.206Z,114.13
2022-07-28T00:44:42.067Z,121.80
2022-07-28T00:47:11.831Z,104.95
2022-07-28T00:49:39.971Z,73.22
2022-07-28T00:52:10.012Z,64.88
2022-07-28T00:54:37.765Z,68.63
2022-07-28T00:57:05.768Z,102.72
2022-07-28T00:59:33.922Z,123.53
2022-07-28T01:02:02.885Z,123.35
2022-07-28T01:04:32.022Z,133.57
2022-07-28T01:07:09.556Z,63.38
2022-07-28T01:09:48.573Z,49.53
2022-07-28T01:12:27.840Z,97.55
2022-07-28T01:15:02.480Z,51.97
2022-07-28T01:17:36.147Z,68.80
2022-07-28T01:20:14.215Z,71.78
2022-07-28T01:22:46.695Z,90.40
2022-07-28T01:25:22.538Z,107.40
2022-07-28T01:27:59.169Z,108.65
2022-07-28T01:30:35.316Z,105.63
2022-07-28T01:33:10.733Z,104.38
2022-07-28T01:35:48.517Z,73.32
2022-07-28T01:38:19.413Z,69.63
2022-07-28T01:40:48.238Z,41.95
2022-07-28T01:43:21.405Z,45.90
2022-07-28T01:45:50.290Z,83.25
2022-07-28T01:48:19.990Z,73.38
2022-07-28T01:50:49.839Z,39.38
2022-07-28T01:53:18.756Z,42.35
2022-07-28T01:55:48.027Z,37.63
2022-07-28T01:58:18.108Z,51.42
2022-07-28T02:00:51.284Z,42.95
2022-07-28T02:03:22.386Z,130.98
2022-07-28T02:05:53.547Z,151.98
2022-07-28T02:08:22.836Z,141.98
2022-07-28T02:11:09.207Z,114.70
2022-07-28T02:13:40.168Z,115.50
2022-07-28T02:16:10.929Z,64.72
2022-07-28T02:18:40.182Z,35.38
2022-07-28T02:21:08.831Z,35.00
2022-07-28T02:23:38.630Z,28.55
2022-07-28T02:26:10.584Z,28.13
2022-07-28T02:28:40.148Z,27.33
2022-07-28T02:31:14.401Z,30.80
2022-07-28T02:33:58.479Z,30.27
2022-07-28T02:36:30.087Z,29.52
2022-07-28T02:39:07.073Z,27.70
2022-07-28T02:41:39.827Z,28.17
2022-07-28T02:44:15.792Z,24.70
2022-07-28T02:46:47.478Z,30.65
2022-07-28T02:49:19.007Z,28.50
2022-07-28T02:51:48.040Z,27.23
2022-07-28T02:54:18.428Z,20.50
2022-07-28T02:56:53.544Z,30.80
2022-07-28T02:59:22.827Z,32.15
2022-07-28T03:01:52.969Z,27.55
2022-07-28T03:04:41.060Z,21.10
2022-07-28T03:07:11.012Z,19.20
2022-07-28T03:09:40.415Z,20.00
2022-07-28T03:12:08.486Z,21.48
2022-07-28T03:14:36.109Z,21.83
2022-07-28T03:17:06.181Z,22.23
2022-07-28T03:19:35.215Z,20.98
2022-07-28T03:22:02.880Z,20.13
2022-07-28T03:24:33.308Z,19.45
2022-07-28T03:27:05.379Z,14.32
2022-07-28T03:29:34.225Z,14.50
2022-07-28T03:32:02.021Z,15.32
2022-07-28T03:34:30.950Z,16.10
2022-07-28T03:37:03.819Z,16.10
2022-07-28T03:39:37.035Z,13.98
2022-07-28T03:42:05.068Z,14.10
2022-07-28T03:44:33.121Z,17.63
2022-07-28T03:47:00.671Z,14.27
2022-07-28T03:49:28.138Z,12.75
2022-07-28T03:51:56.951Z,16.80
2022-07-28T03:54:24.747Z,15.27
2022-07-28T03:56:52.242Z,18.20
2022-07-28T03:59:20.380Z,13.63
2022-07-28T04:01:48.021Z,11.93
2022-07-28T04:04:16.045Z,13.40
2022-07-28T04:06:43.920Z,24.55
2022-07-28T04:09:12.748Z,23.05
2022-07-28T04:11:40.237Z,24.85
2022-07-28T04:14:10.058Z,23.85
2022-07-28T04:16:40.798Z,25.83
2022-07-28T04:19:08.306Z,30.52
2022-07-28T04:21:35.897Z,29.30
2022-07-28T04:24:03.356Z,29.65
2022-07-28T04:26:32.181Z,19.15
2022-07-28T04:28:59.683Z,18.13
2022-07-28T04:31:31.298Z,29.23
2022-07-28T04:33:59.980Z,29.80
2022-07-28T04:36:27.592Z,27.55
2022-07-28T04:38:56.610Z,19.95
2022-07-28T04:41:24.153Z,26.58
2022-07-28T04:43:52.984Z,27.85
2022-07-28T04:46:20.523Z,6.53
2022-07-28T04:48:48.136Z,5.53
2022-07-28T04:51:15.671Z,6.97
2022-07-28T04:53:43.257Z,5.38
2022-07-28T04:56:11.082Z,5.35
2022-07-28T04:58:38.558Z,5.28
2022-07-28T05:01:07.915Z,4.63
2022-07-28T05:03:36.528Z,3.70
2022-07-28T05:06:04.923Z,4.85
2022-07-28T05:08:32.405Z,4.25
2022-07-28T05:10:59.897Z,4.65
2022-07-28T05:13:33.413Z,4.68
2022-07-28T05:16:02.378Z,4.35
2022-07-28T05:18:31.218Z,4.97
2022-07-28T05:20:58.726Z,7.32
2022-07-28T05:23:26.184Z,5.75
2022-07-28T05:25:54.425Z,6.78
2022-07-28T05:28:21.926Z,9.27
2022-07-28T05:30:49.541Z,10.13
2022-07-28T05:33:17.439Z,8.20
2022-07-28T05:35:53.418Z,7.38
2022-07-28T05:38:21.236Z,8.35
2022-07-28T05:40:48.851Z,9.38
2022-07-28T05:43:16.747Z,5.88
2022-07-28T05:45:44.342Z,5.53
2022-07-28T05:48:11.987Z,5.93
2022-07-28T05:50:39.853Z,6.20
2022-07-28T05:53:08.747Z,6.65
2022-07-28T05:55:36.279Z,5.72
2022-07-28T05:58:24.454Z,6.85
2022-07-28T06:00:52.314Z,7.93
2022-07-28T06:03:19.876Z,6.68
2022-07-28T06:06:14.392Z,7.15
2022-07-28T06:08:36.383Z,7.53
2022-07-28T06:11:09.219Z,6.28
2022-07-28T06:13:37.075Z,7.70
2022-07-28T06:16:08.443Z,12.85
2022-07-28T06:18:38.709Z,8.32
2022-07-28T06:21:06.250Z,5.70
2022-07-28T06:23:33.787Z,7.05
2022-07-28T06:26:02.658Z,11.25
2022-07-28T06:28:30.166Z,12.07
2022-07-28T06:30:57.682Z,7.95
2022-07-28T06:33:25.324Z,7.10
2022-07-28T06:35:52.838Z,10.30
2022-07-28T06:38:21.116Z,6.95
2022-07-28T06:40:48.867Z,8.98
2022-07-28T06:43:17.741Z,7.47
2022-07-28T06:45:45.943Z,11.50
2022-07-28T06:48:14.136Z,8.85
2022-07-28T06:50:42.976Z,7.43
2022-07-28T06:53:10.602Z,7.90
2022-07-28T06:55:38.828Z,6.82
2022-07-28T06:58:09.127Z,6.30
2022-07-28T07:00:38.188Z,6.10
2022-07-28T07:03:09.589Z,6.40
2022-07-28T07:05:37.468Z,6.88
2022-07-28T07:08:05.379Z,6.60
2022-07-28T07:10:32.928Z,6.13
2022-07-28T07:13:00.424Z,6.35
2022-07-28T07:15:28.260Z,7.82
2022-07-28T07:17:57.120Z,7.28
2022-07-28T07:20:24.642Z,8.77
2022-07-28T07:22:52.193Z,7.38
2022-07-28T07:25:20.788Z,8.00
2022-07-28T07:27:48.429Z,12.80
2022-07-28T07:30:17.072Z,14.10
2022-07-28T07:32:44.975Z,15.32
2022-07-28T07:35:13.902Z,11.77
2022-07-28T07:37:41.848Z,13.52
2022-07-28T07:40:10.329Z,13.25
2022-07-28T07:42:37.935Z,10.18
2022-07-28T07:45:06.469Z,8.20
2022-07-28T07:47:34.037Z,11.27
2022-07-28T07:50:04.187Z,12.38
2022-07-28T07:52:33.689Z,11.85
2022-07-28T07:55:01.214Z,12.60
2022-07-28T07:57:29.705Z,11.75
2022-07-28T07:59:57.293Z,9.68
2022-07-28T08:02:24.830Z,8.98
2022-07-28T08:04:52.433Z,9.05
2022-07-28T08:07:22.013Z,9.38
2022-07-28T08:09:51.172Z,7.07
2022-07-28T08:12:25.095Z,8.68
2022-07-28T08:14:53.190Z,9.02
2022-07-28T08:17:25.551Z,9.00
2022-07-28T08:19:53.656Z,7.85
2022-07-28T08:22:21.170Z,8.60
2022-07-28T08:24:48.688Z,7.65
2022-07-28T08:27:17.705Z,10.27
2022-07-28T08:29:45.387Z,8.30
2022-07-28T08:32:12.992Z,8.48
2022-07-28T08:34:40.556Z,7.95
2022-07-28T08:37:08.523Z,8.77
2022-07-28T08:39:37.101Z,9.07
2022-07-28T08:42:07.101Z,7.60
2022-07-28T08:44:42.769Z,8.82
2022-07-28T08:47:12.171Z,9.70
2022-07-28T08:49:42.808Z,9.95
2022-07-28T08:52:12.416Z,10.77
2022-07-28T08:54:43.607Z,10.77
2022-07-28T08:57:17.040Z,9.77
2022-07-28T08:59:46.309Z,10.73
2022-07-28T09:02:14.168Z,8.45
2022-07-28T09:04:43.954Z,7.50
2022-07-28T09:07:12.120Z,8.10
2022-07-28T09:09:40.036Z,10.60
2022-07-28T09:12:08.274Z,9.77
2022-07-28T09:14:36.017Z,9.23
2022-07-28T09:17:05.457Z,8.82
2022-07-28T09:19:34.403Z,8.93
2022-07-28T09:22:04.376Z,9.30
2022-07-28T09:24:37.094Z,7.82
2022-07-28T09:27:07.754Z,8.45
2022-07-28T09:29:36.130Z,7.15
2022-07-28T09:32:05.483Z,8.35
2022-07-28T09:34:41.574Z,8.30
2022-07-28T09:37:17.541Z,8.35
2022-07-28T09:39:47.968Z,7.25
2022-07-28T09:42:15.967Z,9.00
2022-07-28T09:45:00.060Z,8.73
2022-07-28T09:47:33.269Z,8.73
2022-07-28T09:50:01.042Z,8.93
2022-07-28T09:52:30.323Z,7.50
2022-07-28T09:55:01.946Z,8.93
2022-07-28T09:57:30.921Z,8.05
2022-07-28T10:00:01.469Z,6.88
2022-07-28T10:02:32.504Z,8.27
2022-07-28T10:05:01.437Z,7.82
2022-07-28T10:07:30.120Z,9.30
2022-07-28T10:09:59.060Z,8.00
2022-07-28T10:12:27.878Z,9.30
2022-07-28T10:14:56.854Z,6.68
2022-07-28T10:17:26.319Z,7.00
2022-07-28T10:19:57.659Z,8.00
2022-07-28T10:22:28.437Z,8.00
2022-07-28T10:24:57.513Z,7.43
2022-07-28T10:27:25.962Z,6.72
2022-07-28T10:29:59.358Z,7.05
2022-07-28T10:32:29.493Z,8.70
2022-07-28T10:35:02.545Z,6.82
2022-07-28T10:37:32.685Z,6.55
2022-07-28T10:40:10.061Z,6.20
2022-07-28T10:42:39.556Z,7.65
2022-07-28T10:45:10.303Z,7.88
2022-07-28T10:47:37.864Z,6.30
2022-07-28T10:50:08.535Z,7.32
2022-07-28T10:52:47.386Z,7.70
2022-07-28T10:55:21.818Z,6.80
2022-07-28T10:58:02.034Z,8.25
2022-07-28T11:00:55.447Z,5.50
2022-07-28T11:03:39.972Z,7.18
2022-07-28T11:06:30.121Z,9.05
2022-07-28T11:08:58.747Z,8.10
2022-07-28T11:11:45.941Z,7.22
2022-07-28T11:14:37.169Z,8.02
2022-07-28T11:17:24.046Z,8.10
2022-07-28T11:22:45.590Z,5.65
2022-07-28T11:25:21.084Z,8.45
2022-07-28T11:28:05.843Z,6.75
2022-07-28T11:30:55.633Z,6.75
2022-07-28T11:33:25.086Z,6.07
2022-07-28T11:35:57.977Z,7.20
2022-07-28T11:38:27.888Z,6.60
2022-07-28T11:40:57.377Z,9.00
2022-07-28T11:43:37.466Z,7.22
2022-07-28T11:46:34.435Z,8.90
2022-07-28T11:49:27.778Z,8.23
2022-07-28T11:52:09.787Z,7.00
2022-07-28T11:54:40.671Z,7.78
2022-07-28T11:57:10.847Z,6.72
2022-07-28T12:00:00.165Z,9.23
2022-07-28T12:02:31.573Z,11.25
2022-07-28T12:05:23.634Z,11.52
2022-07-28T12:07:53.590Z,8.82
2022-07-28T12:10:53.966Z,8.68
2022-07-28T12:13:28.561Z,6.32
2022-07-28T12:15:56.145Z,8.00
2022-07-28T12:18:24.758Z,8.82
2022-07-28T12:20:53.743Z,8.02
2022-07-28T12:23:38.732Z,7.30
2022-07-28T12:26:07.653Z,7.40
2022-07-28T12:28:37.701Z,8.27
2022-07-28T12:31:12.430Z,8.10
2022-07-28T12:33:40.207Z,8.05
2022-07-28T12:36:09.259Z,8.15
2022-07-28T12:38:37.047Z,8.20
2022-07-28T12:41:16.468Z,6.95
2022-07-28T12:43:51.224Z,8.48
2022-07-28T12:46:23.672Z,7.55
2022-07-28T12:48:56.668Z,8.48
2022-07-28T12:51:35.573Z,8.32
2022-07-28T12:54:04.379Z,8.95
2022-07-28T12:56:33.719Z,6.65
2022-07-28T12:59:06.314Z,9.48
2022-07-28T13:01:51.351Z,8.07
2022-07-28T13:04:40.568Z,8.57
2022-07-28T13:07:10.644Z,7.82
2022-07-28T13:09:41.642Z,8.57
2022-07-28T13:12:21.835Z,7.50
2022-07-28T13:14:52.672Z,7.97
2022-07-28T13:17:22.047Z,7.28
2022-07-28T13:19:50.658Z,10.02
2022-07-28T13:22:27.604Z,8.90
2022-07-28T13:24:56.895Z,9.23
2022-07-28T13:27:25.930Z,8.02
2022-07-28T13:29:53.960Z,7.45
2022-07-28T13:32:21.587Z,8.40
2022-07-28T13:34:49.210Z,8.32
2022-07-28T13:37:16.782Z,8.32
2022-07-28T13:39:44.359Z,9.32
2022-07-28T13:42:11.977Z,8.57
2022-07-28T13:44:42.177Z,9.95
2022-07-28T13:47:10.091Z,11.50
2022-07-28T13:49:38.186Z,9.75
2022-07-28T13:52:12.927Z,8.15
2022-07-28T13:54:41.076Z,12.15
2022-07-28T13:57:08.648Z,8.55
2022-07-28T13:59:37.900Z,5.72
2022-07-28T14:02:15.050Z,5.35
2022-07-28T14:04:45.945Z,7.00
2022-07-28T14:07:20.562Z,10.40
2022-07-28T14:09:50.185Z,7.60
2022-07-28T14:12:17.754Z,7.47
2022-07-28T14:14:48.433Z,7.13
2022-07-28T14:17:50.232Z,8.23
2022-07-28T14:20:11.304Z,8.27
2022-07-28T14:22:38.908Z,8.02
2022-07-28T14:25:07.402Z,8.70
2022-07-28T14:27:35.168Z,9.90
2022-07-28T14:30:04.155Z,8.43
2022-07-28T14:32:33.565Z,8.27
2022-07-28T14:35:02.337Z,8.50
2022-07-28T14:37:47.103Z,8.52
2022-07-28T14:40:18.527Z,10.00
2022-07-28T14:42:46.031Z,8.75
2022-07-28T14:45:14.245Z,8.23
2022-07-28T14:47:45.348Z,9.30
2022-07-28T14:50:13.518Z,10.00
2022-07-28T14:52:44.752Z,6.15
2022-07-28T14:55:12.960Z,10.07
2022-07-28T14:57:52.107Z,9.57
2022-07-28T15:00:23.394Z,8.88
2022-07-28T15:02:52.916Z,5.20
2022-07-28T15:05:21.088Z,9.30
2022-07-28T15:07:49.370Z,6.55
2022-07-28T15:10:17.124Z,8.82
2022-07-28T15:12:44.804Z,9.57
2022-07-28T15:15:12.866Z,6.72
2022-07-28T15:17:40.522Z,9.48
2022-07-28T15:20:11.373Z,9.25
2022-07-28T15:22:38.929Z,10.18
2022-07-28T15:25:07.176Z,9.82
2022-07-28T15:27:34.657Z,4.85
2022-07-28T15:30:03.416Z,10.57
2022-07-28T15:32:31.622Z,10.20
2022-07-28T15:34:59.670Z,10.00
2022-07-28T15:37:28.548Z,11.55
2022-07-28T15:39:56.112Z,9.02
2022-07-28T15:42:23.679Z,7.47
2022-07-28T15:44:53.159Z,10.43
2022-07-28T15:47:21.998Z,9.90
2022-07-28T15:49:49.471Z,10.93
2022-07-28T15:52:17.004Z,9.10
2022-07-28T15:54:47.716Z,9.60
2022-07-28T15:57:15.210Z,10.05
2022-07-28T15:59:50.100Z,8.07
2022-07-28T16:02:19.291Z,5.78
2022-07-28T16:04:53.344Z,7.35
2022-07-28T16:07:23.289Z,5.05
2022-07-28T16:09:54.629Z,5.25
2022-07-28T16:12:22.774Z,5.85
2022-07-28T16:14:54.083Z,5.40
2022-07-28T16:17:22.534Z,4.32
2022-07-28T16:19:51.185Z,4.63
2022-07-28T16:22:18.919Z,4.78
2022-07-28T16:24:46.533Z,8.50
2022-07-28T16:27:15.752Z,5.45
2022-07-28T16:29:43.289Z,5.25
2022-07-28T16:32:11.169Z,7.20
2022-07-28T16:34:38.731Z,7.25
2022-07-28T16:37:06.366Z,4.80
2022-07-28T16:39:34.246Z,5.53
2022-07-28T16:42:02.753Z,5.07
2022-07-28T16:44:32.184Z,6.70
2022-07-28T16:46:59.798Z,5.40
2022-07-28T16:49:27.650Z,3.72
2022-07-28T16:51:56.049Z,8.40
2022-07-28T16:54:23.873Z,5.43
2022-07-28T16:56:51.787Z,5.00
2022-07-28T16:59:19.319Z,4.93
2022-07-28T17:01:48.256Z,8.50
2022-07-28T17:04:17.366Z,7.10
2022-07-28T17:06:45.289Z,6.50
2022-07-28T17:09:15.826Z,7.10
2022-07-28T17:11:43.772Z,6.50
2022-07-28T17:14:12.553Z,6.03
2022-07-28T17:16:40.338Z,7.78
2022-07-28T17:19:09.554Z,7.70
2022-07-28T17:21:37.392Z,3.55
2022-07-28T17:24:05.866Z,8.00
2022-07-28T17:29:22.421Z,4.93
2022-07-28T17:31:50.221Z,4.10
2022-07-28T17:34:19.415Z,4.57
2022-07-28T17:36:48.049Z,5.35
2022-07-28T17:39:15.511Z,7.30
2022-07-28T17:41:43.039Z,10.00
2022-07-28T17:44:10.509Z,8.82
2022-07-28T17:46:38.624Z,6.68
2022-07-28T17:49:07.901Z,5.22
2022-07-28T17:51:37.430Z,4.53
2022-07-28T17:54:05.402Z,5.25
2022-07-28T17:56:36.505Z,6.68
2022-07-28T17:59:05.943Z,5.75
2022-07-28T18:01:33.502Z,4.63
2022-07-28T18:04:01.337Z,6.25
2022-07-28T18:06:34.337Z,3.50
2022-07-28T18:09:06.332Z,4.43
2022-07-28T18:11:35.965Z,6.22
2022-07-28T18:14:05.577Z,6.38
2022-07-28T18:16:34.052Z,3.47
2022-07-28T18:19:02.155Z,4.90
2022-07-28T18:21:29.860Z,3.75
2022-07-28T18:23:57.397Z,4.63
2022-07-28T18:26:26.288Z,3.85
2022-07-28T18:28:53.770Z,3.88
2022-07-28T18:31:21.757Z,3.45
2022-07-28T18:33:49.350Z,3.75
2022-07-28T18:36:16.848Z,3.33
2022-07-28T18:38:44.323Z,3.20
2022-07-28T18:41:11.785Z,3.20
2022-07-28T18:43:40.583Z,2.90
2022-07-28T18:46:08.344Z,2.75
2022-07-28T18:48:35.900Z,3.65
2022-07-28T18:51:03.383Z,4.95
2022-07-28T18:53:30.906Z,4.15
2022-07-28T18:55:59.127Z,3.22
2022-07-28T18:58:26.663Z,4.32
2022-07-28T19:00:55.512Z,3.65
2022-07-28T19:03:23.074Z,3.70
2022-07-28T19:05:53.678Z,3.95
2022-07-28T19:08:21.511Z,3.97
2022-07-28T19:10:49.336Z,3.47
2022-07-28T19:13:16.846Z,3.50
2022-07-28T19:15:44.511Z,4.22
2022-07-28T19:18:13.412Z,3.95
2022-07-28T19:20:41.237Z,4.05
2022-07-28T19:23:08.751Z,4.03
2022-07-28T19:25:37.599Z,4.07
2022-07-28T19:28:05.404Z,5.07
2022-07-28T19:30:33.090Z,4.30
2022-07-28T19:33:00.787Z,4.00
2022-07-28T19:35:30.225Z,5.90
2022-07-28T19:37:59.882Z,5.78
2022-07-28T19:40:29.615Z,6.68
2022-07-28T19:42:57.444Z,6.80
2022-07-28T19:45:25.179Z,7.57
2022-07-28T19:47:54.459Z,6.90
2022-07-28T19:50:22.260Z,8.48
2022-07-28T19:52:51.239Z,5.75
2022-07-28T19:55:18.890Z,5.55
2022-07-28T19:57:47.141Z,5.90
2022-07-28T20:00:17.231Z,6.65
2022-07-28T20:02:45.729Z,5.72
2022-07-28T20:05:13.543Z,4.35
2022-07-28T20:07:41.080Z,4.32
2022-07-28T20:10:10.314Z,5.00
2022-07-28T20:12:38.083Z,4.40
2022-07-28T20:15:06.018Z,3.85
2022-07-28T20:17:38.917Z,3.67
2022-07-28T20:20:08.585Z,3.95
2022-07-28T20:22:36.201Z,3.53
2022-07-28T20:25:03.924Z,3.45
2022-07-28T20:27:32.784Z,3.88
2022-07-28T20:30:09.616Z,3.60
2022-07-28T20:32:37.796Z,3.17
2022-07-28T20:35:06.327Z,3.92
2022-07-28T20:37:37.313Z,3.70
2022-07-28T20:40:06.955Z,3.88
2022-07-28T20:42:36.690Z,4.45
2022-07-28T20:45:05.304Z,3.92
2022-07-28T20:47:33.272Z,4.53
2022-07-28T20:50:00.901Z,5.13
2022-07-28T20:52:28.592Z,6.50
2022-07-28T20:54:56.142Z,7.57
2022-07-28T20:57:23.891Z,9.85
2022-07-28T20:59:52.846Z,12.20
2022-07-28T21:02:21.384Z,8.77
2022-07-28T21:04:50.487Z,9.73
2022-07-28T21:08:05.093Z,11.05
2022-07-28T21:10:07.580Z,7.90
2022-07-28T21:12:36.942Z,13.00
2022-07-28T21:15:07.207Z,18.23
2022-07-28T21:17:35.297Z,14.20
2022-07-28T21:20:02.981Z,16.33
2022-07-28T21:22:30.784Z,19.40
2022-07-28T21:24:59.045Z,13.90
2022-07-28T21:27:26.571Z,18.98
2022-07-28T21:32:20.939Z,18.55
2022-07-28T21:34:48.566Z,16.27
2022-07-28T21:37:16.106Z,16.73
2022-07-28T21:39:44.202Z,8.23
2022-07-28T21:42:11.726Z,9.10
2022-07-28T21:44:39.245Z,12.82
2022-07-28T21:47:07.005Z,10.70
2022-07-28T21:49:35.876Z,13.13
2022-07-28T21:52:03.425Z,12.73
2022-07-28T21:54:31.018Z,14.60
2022-07-28T21:56:58.730Z,11.52
2022-07-28T21:59:26.347Z,10.35
2022-07-28T22:01:53.913Z,13.52
2022-07-28T22:04:21.874Z,10.95
2022-07-28T22:06:50.990Z,10.95
2022-07-28T22:09:18.493Z,10.40
2022-07-28T22:11:46.172Z,13.80
2022-07-28T22:14:14.065Z,10.00
2022-07-28T22:16:41.853Z,12.45
2022-07-28T22:19:11.760Z,9.95
2022-07-28T22:21:39.356Z,8.98
2022-07-28T22:24:09.719Z,8.77
2022-07-28T22:26:37.301Z,11.15
2022-07-28T22:29:04.820Z,5.60
2022-07-28T22:31:32.402Z,6.93
2022-07-28T22:33:59.969Z,6.97
2022-07-28T22:36:27.597Z,10.35
2022-07-28T22:38:55.524Z,14.80
2022-07-28T22:41:24.586Z,16.02
2022-07-28T22:43:52.233Z,14.45
2022-07-28T22:46:19.843Z,16.13
2022-07-28T22:48:47.544Z,16.27
2022-07-28T22:51:16.079Z,14.65
2022-07-28T22:53:43.572Z,14.25
2022-07-28T22:56:11.839Z,13.50
2022-07-28T22:58:41.010Z,14.20
2022-07-28T23:01:08.612Z,10.55
2022-07-28T23:03:36.753Z,6.65
2022-07-28T23:06:05.871Z,11.90
2022-07-28T23:08:33.489Z,9.65
2022-07-28T23:11:01.021Z,11.88
2022-07-28T23:13:28.612Z,13.23
2022-07-28T23:15:57.523Z,16.50
2022-07-28T23:18:25.056Z,13.32
2022-07-28T23:20:52.720Z,16.33
2022-07-28T23:23:21.147Z,13.15
2022-07-28T23:25:48.700Z,12.27
2022-07-28T23:28:16.266Z,8.05
2022-07-28T23:30:45.413Z,9.00
2022-07-28T23:33:15.629Z,7.63
2022-07-28T23:36:01.831Z,12.35
2022-07-28T23:38:29.370Z,14.77
2022-07-28T23:40:56.858Z,14.30
2022-07-28T23:43:24.350Z,13.18
2022-07-28T23:45:51.874Z,11.75
2022-07-28T23:48:20.712Z,11.85
2022-07-28T23:50:48.255Z,7.30
2022-07-28T23:53:15.757Z,7.65
2022-07-28T23:55:45.085Z,8.07
2022-07-28T23:58:12.580Z,15.07
